Bookmark and Share
Track history (hours):
 

Coral Coast

More information available from US FCC via Universal Licensing System and Coast Guard Vessel Documentation Center.

Last reported at 2014-Apr-02 01:08 UTC. Time now 2014-Apr-16 22:30 UTC.
Position N 39°16' W 074°22'.
Warning: this ship's position is 14 days out of date.

Length 70 m; draft 4.8 m.

Type: Tug. MMSI: 367459570.

NotesDate/timePositionNaut miles runAvg speedWind from/ knotsBaromVisibWave heightAir tempDewpointWater temp
2014-Apr-02 01:08N 39°16' W 074°22'710.7
2014-Apr-02 00:27N 39°22' W 074°15'1010.6
2014-Apr-01 23:33N 39°31' W 074°11'1110.6
2014-Apr-01 22:33N 39°40' W 074°04'10 9.8
2014-Apr-01 21:33N 39°49' W 073°59'4010.0
2014-Apr-01 17:33N 40°29' W 073°56'1010.1
2014-Apr-01 16:33N 40°38' W 074°03'8 8.4
2014-Apr-01 15:33N 40°45' W 073°58'5 5.2
2014-Apr-01 14:33N 40°48' W 073°51'2 1.0
2014-Apr-01 12:32N 40°46' W 073°51'0 0.0
2014-Apr-01 05:19N 40°46' W 073°51'7 0.4
2014-Mar-31 11:31N 40°51' W 073°45'0 0.0
2014-Mar-31 08:30N 40°51' W 073°45'4 0.9
2014-Mar-31 04:22N 40°48' W 073°49'5 5.8
2014-Mar-31 03:33N 40°48' W 073°55'5 4.9
2014-Mar-31 02:33N 40°43' W 073°58'7 6.8
2014-Mar-31 01:33N 40°38' W 074°03'4 4.2
2014-Mar-31 00:33N 40°33' W 074°02'6 5.2
2014-Mar-30 23:25N 40°29' W 073°56'29 5.5
2014-Mar-30 18:09N 40°00' W 073°56'3 5.7
2014-Mar-30 17:33N 39°57' W 073°56'6 5.6
2014-Mar-30 16:33N 39°51' W 073°57'5 5.5
2014-Mar-30 15:33N 39°46' W 073°58'5 5.4
2014-Mar-30 14:33N 39°41' W 074°01'6 5.7
2014-Mar-30 13:33N 39°36' W 074°04'6 6.1
2014-Mar-30 12:33N 39°30' W 074°08'6 6.1
2014-Mar-30 11:33N 39°25' W 074°12'154 6.6
2014-Mar-29 12:18N 37°06' W 075°37'6 6.9
2014-Mar-29 11:25N 37°00' W 075°39'7 6.8
2014-Mar-29 10:20N 36°53' W 075°41'148 6.4
2014-Mar-28 11:09N 34°28' W 076°17'5 7.4
2014-Mar-28 10:27N 34°25' W 076°22'7 7.3
2014-Mar-28 09:33N 34°22' W 076°29'9 6.9
2014-Mar-28 08:12N 34°18' W 076°39'  

Dump ship's entire track history

sailing weather and tide predictions

Coral Coast — WDF5120 — position and weather